SKU027 SCAR-SCDA
Flight info
| Callsign | SKU027 |
|---|---|
| Flight time | 0h 32m |
| Altitude | 25000 |
| Route | LOBAG3K LOBAG IQQ |
| Aircraft | A20N/M-SDE3FGHIRWY/L |
Departure
| Time | 2026-05-04 05:47 |
|---|---|
| Airport | Chacalluta International Airport (SCAR) |
Arrival
| Time | 2026-05-04 06:20 |
|---|---|
| Airport | Diego Aracena International Airport (SCDA) |
| Time | Latitude | Longitude | Altitude | Speed | Heading |
|---|---|---|---|---|---|
| 2026-05-04 05:37 | -18.34887 | -70.33655 | 158 ft | 0 kts | 131° |
| 2026-05-04 05:41 | -18.34890 | -70.33650 | 158 ft | 2 kts | 128° |
| 2026-05-04 05:42 | -18.34894 | -70.33649 | 158 ft | 0 kts | 159° |
| 2026-05-04 05:42 | -18.34898 | -70.33658 | 157 ft | 5 kts | 249° |
| 2026-05-04 05:42 | -18.34918 | -70.33697 | 157 ft | 3 kts | 297° |
| 2026-05-04 05:42 | -18.34893 | -70.33709 | 157 ft | 6 kts | 334° |
| 2026-05-04 05:43 | -18.34878 | -70.33705 | 158 ft | 5 kts | 22° |
| 2026-05-04 05:43 | -18.34805 | -70.33676 | 159 ft | 15 kts | 18° |
| 2026-05-04 05:43 | -18.34691 | -70.33636 | 162 ft | 20 kts | 20° |
| 2026-05-04 05:45 | -18.34141 | -70.33433 | 174 ft | 0 kts | 19° |
| 2026-05-04 05:47 | -18.35515 | -70.34102 | 358 ft | 178 kts | 196° |
| 2026-05-04 05:47 | -18.36790 | -70.34447 | 1076 ft | 189 kts | 182° |
| 2026-05-04 05:47 | -18.38058 | -70.34481 | 2189 ft | 181 kts | 178° |
| 2026-05-04 05:48 | -18.39317 | -70.33995 | 2822 ft | 209 kts | 147° |
| 2026-05-04 05:48 | -18.40529 | -70.32984 | 3289 ft | 244 kts | 140° |
| 2026-05-04 05:48 | -18.41905 | -70.31813 | 4031 ft | 261 kts | 143° |
| 2026-05-04 05:48 | -18.43455 | -70.30772 | 5002 ft | 267 kts | 152° |
| 2026-05-04 05:49 | -18.45194 | -70.30022 | 5897 ft | 274 kts | 162° |
| 2026-05-04 05:49 | -18.47068 | -70.29540 | 6743 ft | 280 kts | 168° |
| 2026-05-04 05:49 | -18.48989 | -70.29112 | 7590 ft | 283 kts | 165° |
| 2026-05-04 05:49 | -18.50859 | -70.28447 | 8478 ft | 285 kts | 155° |
| 2026-05-04 05:51 | -18.63527 | -70.30303 | 13126 ft | 337 kts | 206° |
| 2026-05-04 05:51 | -18.65742 | -70.31077 | 13867 ft | 335 kts | 188° |
| 2026-05-04 05:52 | -18.68021 | -70.31546 | 14526 ft | 340 kts | 189° |
| 2026-05-04 05:52 | -18.70357 | -70.32061 | 15143 ft | 346 kts | 190° |
| 2026-05-04 05:52 | -18.72735 | -70.32599 | 15788 ft | 351 kts | 190° |
| 2026-05-04 05:52 | -18.75164 | -70.33022 | 16440 ft | 356 kts | 185° |
| 2026-05-04 05:53 | -18.77662 | -70.33187 | 17098 ft | 361 kts | 181° |
| 2026-05-04 05:54 | -18.95813 | -70.31746 | 21308 ft | 386 kts | 181° |
| 2026-05-04 05:55 | -18.98500 | -70.31838 | 21507 ft | 385 kts | 183° |
| 2026-05-04 05:55 | -19.01187 | -70.31958 | 21376 ft | 386 kts | 182° |
| 2026-05-04 05:55 | -19.03877 | -70.31959 | 21134 ft | 386 kts | 176° |
| 2026-05-04 05:55 | -19.06549 | -70.31592 | 21021 ft | 387 kts | 170° |
| 2026-05-04 05:56 | -19.09165 | -70.31071 | 21015 ft | 387 kts | 169° |
| 2026-05-04 05:56 | -19.11802 | -70.30503 | 21014 ft | 386 kts | 169° |
| 2026-05-04 05:56 | -19.14454 | -70.29990 | 21017 ft | 386 kts | 172° |
| 2026-05-04 05:56 | -19.17127 | -70.29705 | 21017 ft | 386 kts | 178° |
| 2026-05-04 05:57 | -19.19809 | -70.29702 | 21014 ft | 385 kts | 183° |
| 2026-05-04 05:57 | -19.22491 | -70.29870 | 21013 ft | 385 kts | 184° |
| 2026-05-04 05:57 | -19.25162 | -70.30029 | 21012 ft | 385 kts | 183° |
| 2026-05-04 05:57 | -19.27811 | -70.30142 | 21012 ft | 385 kts | 182° |
| 2026-05-04 05:58 | -19.30495 | -70.30210 | 20998 ft | 382 kts | 181° |
| 2026-05-04 05:58 | -19.33106 | -70.30230 | 20783 ft | 370 kts | 180° |
| 2026-05-04 05:58 | -19.35671 | -70.30206 | 20318 ft | 365 kts | 179° |
| 2026-05-04 05:58 | -19.38213 | -70.30136 | 19805 ft | 363 kts | 178° |
| 2026-05-04 05:59 | -19.40697 | -70.30023 | 19299 ft | 360 kts | 177° |
| 2026-05-04 05:59 | -19.43199 | -70.29864 | 18804 ft | 357 kts | 176° |
| 2026-05-04 05:59 | -19.45671 | -70.29660 | 18308 ft | 355 kts | 175° |
| 2026-05-04 05:59 | -19.48125 | -70.29412 | 17780 ft | 352 kts | 174° |
| 2026-05-04 06:00 | -19.50507 | -70.29125 | 17494 ft | 342 kts | 173° |
| 2026-05-04 06:00 | -19.52825 | -70.28800 | 17293 ft | 328 kts | 172° |
| 2026-05-04 06:00 | -19.55043 | -70.28444 | 17141 ft | 316 kts | 171° |
| 2026-05-04 06:00 | -19.57169 | -70.28058 | 16982 ft | 304 kts | 169° |
| 2026-05-04 06:01 | -19.59184 | -70.27649 | 16844 ft | 292 kts | 168° |
| 2026-05-04 06:01 | -19.61139 | -70.27208 | 16720 ft | 282 kts | 167° |
| 2026-05-04 06:03 | -19.73415 | -70.25257 | 14687 ft | 266 kts | 183° |
| 2026-05-04 06:03 | -19.75290 | -70.25524 | 14059 ft | 278 kts | 191° |
| 2026-05-04 06:05 | -19.89324 | -70.28030 | 10165 ft | 292 kts | 173° |
| 2026-05-04 06:05 | -19.93150 | -70.27245 | 9722 ft | 270 kts | 162° |
| 2026-05-04 06:05 | -19.94918 | -70.26598 | 9304 ft | 268 kts | 158° |
| 2026-05-04 06:06 | -19.96588 | -70.25790 | 8856 ft | 267 kts | 152° |
| 2026-05-04 06:06 | -19.98252 | -70.24901 | 8401 ft | 267 kts | 155° |
| 2026-05-04 06:06 | -20.00028 | -70.24305 | 7955 ft | 268 kts | 172° |
| 2026-05-04 06:06 | -20.01856 | -70.24567 | 7505 ft | 270 kts | 204° |
| 2026-05-04 06:07 | -20.03489 | -70.25553 | 7104 ft | 268 kts | 205° |
| 2026-05-04 06:07 | -20.05278 | -70.26001 | 6694 ft | 266 kts | 179° |
| 2026-05-04 06:07 | -20.07108 | -70.25770 | 6291 ft | 265 kts | 169° |
| 2026-05-04 06:07 | -20.08915 | -70.25371 | 5843 ft | 265 kts | 167° |
| 2026-05-04 06:08 | -20.10683 | -70.24956 | 5504 ft | 261 kts | 167° |
| 2026-05-04 06:08 | -20.12449 | -70.24518 | 5163 ft | 258 kts | 166° |
| 2026-05-04 06:08 | -20.14188 | -70.24069 | 4829 ft | 255 kts | 165° |
| 2026-05-04 06:08 | -20.15908 | -70.23606 | 4471 ft | 253 kts | 165° |
| 2026-05-04 06:09 | -20.17608 | -70.23147 | 4134 ft | 251 kts | 165° |
| 2026-05-04 06:09 | -20.19279 | -70.22677 | 4004 ft | 244 kts | 164° |
| 2026-05-04 06:11 | -20.29463 | -70.19217 | 3881 ft | 211 kts | 161° |
| 2026-05-04 06:11 | -20.30818 | -70.18753 | 3780 ft | 199 kts | 162° |
| 2026-05-04 06:13 | -20.35051 | -70.21763 | 3539 ft | 178 kts | 334° |
| 2026-05-04 06:14 | -20.33750 | -70.17505 | 3562 ft | 179 kts | 185° |
| 2026-05-04 06:14 | -20.34916 | -70.17939 | 3569 ft | 178 kts | 203° |
| 2026-05-04 06:15 | -20.36130 | -70.18082 | 3561 ft | 178 kts | 166° |
| 2026-05-04 06:15 | -20.37330 | -70.17794 | 3548 ft | 176 kts | 180° |
| 2026-05-04 06:15 | -20.38532 | -70.17709 | 3482 ft | 171 kts | 172° |
| 2026-05-04 06:15 | -20.39670 | -70.17527 | 3287 ft | 160 kts | 172° |
| 2026-05-04 06:16 | -20.40766 | -70.17425 | 2944 ft | 159 kts | 178° |
| 2026-05-04 06:16 | -20.41878 | -70.17409 | 2518 ft | 158 kts | 177° |
| 2026-05-04 06:16 | -20.42909 | -70.17436 | 2385 ft | 143 kts | 186° |
| 2026-05-04 06:16 | -20.43887 | -70.17546 | 2200 ft | 140 kts | 185° |
| 2026-05-04 06:17 | -20.44854 | -70.17646 | 2008 ft | 139 kts | 184° |
| 2026-05-04 06:17 | -20.45825 | -70.17714 | 1726 ft | 139 kts | 182° |
| 2026-05-04 06:17 | -20.46793 | -70.17738 | 1454 ft | 138 kts | 181° |
| 2026-05-04 06:17 | -20.47742 | -70.17783 | 1211 ft | 137 kts | 183° |
| 2026-05-04 06:18 | -20.48700 | -70.17841 | 968 ft | 137 kts | 183° |
| 2026-05-04 06:18 | -20.49654 | -70.17905 | 730 ft | 137 kts | 184° |
| 2026-05-04 06:18 | -20.50594 | -70.17973 | 482 ft | 135 kts | 181° |
| 2026-05-04 06:20 | -20.54933 | -70.18208 | 167 ft | 27 kts | 176° |
| 2026-05-04 06:20 | -20.55026 | -70.18114 | 168 ft | 20 kts | 96° |
| 2026-05-04 06:21 | -20.54727 | -70.18003 | 162 ft | 2 kts | 44° |
| 2026-05-04 06:21 | -20.54721 | -70.17987 | 162 ft | 3 kts | 83° |
| 2026-05-04 06:22 | -20.54728 | -70.17964 | 162 ft | 4 kts | 113° |
| 2026-05-04 06:22 | -20.54741 | -70.17942 | 162 ft | 0 kts | 129° |